Time;durP1;ratioP1;P1;durP2;ratioP2;P2;SDS_P1;SDS_P2;PMS_P1;PMS_P2;Temp;Humidity;BMP_temperature;BMP_pressure;BME280_temperature;BME280_humidity;BME280_pressure;Samples;Min_cycle;Max_cycle;Signal;HPM_P1;HPM_P2
2022/08/07 00:00:02;;;;;;;2.45;1.33;;;15.30;99.90;;;;;;2076593;28;20021;-72
2022/08/07 00:01:05;;;;;;;1.95;1.58;;;15.30;99.90;;;;;;2073852;28;20584;-72
2022/08/07 00:02:05;;;;;;;1.63;1.40;;;15.30;99.90;;;;;;2072891;28;20033;-72
2022/08/07 00:03:07;;;;;;;4.00;1.55;;;15.30;99.90;;;;;;2075146;28;20097;-72
2022/08/07 00:04:08;;;;;;;2.17;1.52;;;15.30;99.90;;;;;;2074998;28;20026;-72
2022/08/07 00:05:09;;;;;;;3.38;1.73;;;15.30;99.90;;;;;;2074117;28;20057;-72
2022/08/07 00:06:09;;;;;;;2.08;1.65;;;15.20;99.90;;;;;;2075956;28;20046;-72
2022/08/07 00:07:10;;;;;;;4.05;1.80;;;15.20;99.90;;;;;;2072829;28;20109;-72
2022/08/07 00:08:11;;;;;;;2.08;1.88;;;15.30;99.90;;;;;;2073643;28;20029;-72
2022/08/07 00:09:11;;;;;;;3.10;1.70;;;15.20;99.90;;;;;;2076911;28;20025;-72
2022/08/07 00:10:12;;;;;;;3.80;1.50;;;15.20;99.90;;;;;;2075413;28;20037;-72
2022/08/07 00:11:13;;;;;;;2.90;1.50;;;15.20;99.90;;;;;;2075575;28;20420;-72
2022/08/07 00:12:13;;;;;;;1.65;1.55;;;15.20;99.90;;;;;;2072803;28;20028;-72
2022/08/07 00:13:15;;;;;;;1.65;1.55;;;15.20;99.90;;;;;;2073506;28;20022;-72
2022/08/07 00:14:16;;;;;;;1.98;1.23;;;15.20;99.90;;;;;;2075723;28;20088;-72
2022/08/07 00:15:17;;;;;;;1.92;1.77;;;15.20;99.90;;;;;;2074220;28;20017;-72
2022/08/07 00:16:18;;;;;;;2.63;1.80;;;15.20;99.90;;;;;;2075029;28;20116;-72
2022/08/07 00:17:18;;;;;;;4.55;1.63;;;15.10;99.90;;;;;;2075032;28;20097;-72
2022/08/07 00:18:22;;;;;;;2.28;1.60;;;15.10;99.90;;;;;;2076568;28;20514;-72
2022/08/07 00:19:22;;;;;;;2.38;1.60;;;15.10;99.90;;;;;;2073306;28;20455;-72
2022/08/07 00:20:24;;;;;;;3.50;2.00;;;15.10;99.90;;;;;;2076776;28;20034;-72
2022/08/07 00:21:24;;;;;;;2.25;1.92;;;15.10;99.90;;;;;;2074101;28;20036;-72
2022/08/07 00:22:25;;;;;;;1.98;1.55;;;15.10;99.90;;;;;;2074964;28;20028;-72
2022/08/07 00:23:26;;;;;;;3.60;1.70;;;15.10;99.90;;;;;;2074098;28;20459;-72
2022/08/07 00:24:26;;;;;;;2.13;1.60;;;15.10;99.90;;;;;;2072788;28;20552;-72
2022/08/07 00:25:27;;;;;;;3.00;1.92;;;15.00;99.90;;;;;;2075844;28;20033;-72
2022/08/07 00:26:28;;;;;;;2.22;1.73;;;15.00;99.90;;;;;;2076295;28;20026;-72
2022/08/07 00:27:28;;;;;;;1.70;1.60;;;15.00;99.90;;;;;;2077877;28;20100;-72
2022/08/07 00:28:30;;;;;;;2.38;1.77;;;15.00;99.90;;;;;;2072453;28;20030;-72
2022/08/07 00:29:31;;;;;;;2.88;1.70;;;15.00;99.90;;;;;;2077370;28;20104;-72
2022/08/07 00:30:31;;;;;;;3.92;1.75;;;15.00;99.90;;;;;;2074278;28;20026;-72
2022/08/07 00:31:32;;;;;;;2.38;1.67;;;15.00;99.90;;;;;;2072077;28;20026;-72
2022/08/07 00:32:32;;;;;;;2.40;1.52;;;15.00;99.90;;;;;;2074654;28;20384;-72
2022/08/07 00:33:35;;;;;;;3.30;1.70;;;14.90;99.90;;;;;;2074919;28;20022;-72
2022/08/07 00:34:35;;;;;;;2.97;1.70;;;14.90;99.90;;;;;;2075028;28;20040;-72
2022/08/07 00:35:36;;;;;;;1.65;1.45;;;14.90;99.90;;;;;;2075423;28;20014;-72
2022/08/07 00:36:37;;;;;;;2.08;1.92;;;14.90;99.90;;;;;;2073175;28;20029;-72
2022/08/07 00:37:38;;;;;;;1.70;1.60;;;14.90;99.90;;;;;;2075548;28;20060;-72
2022/08/07 00:38:39;;;;;;;2.33;1.50;;;14.90;99.90;;;;;;2075617;28;20069;-72
2022/08/07 00:39:39;;;;;;;2.38;1.42;;;14.90;99.90;;;;;;2072407;28;20074;-72
2022/08/07 00:40:40;;;;;;;3.10;1.67;;;14.90;99.90;;;;;;2075249;28;20022;-72
2022/08/07 00:41:51;;;;;;;2.10;1.45;;;14.90;99.90;;;;;;2074275;28;20025;-72
2022/08/07 00:42:51;;;;;;;3.35;1.88;;;14.90;99.90;;;;;;2072766;28;20017;-72
2022/08/07 00:43:52;;;;;;;1.85;1.75;;;14.80;99.90;;;;;;2074613;28;20026;-72
2022/08/07 00:44:53;;;;;;;2.10;1.90;;;14.80;99.90;;;;;;2073071;28;20071;-72
2022/08/07 00:45:53;;;;;;;3.42;1.70;;;14.80;99.90;;;;;;2074575;28;20833;-72
2022/08/07 00:46:54;;;;;;;1.90;1.35;;;14.80;99.90;;;;;;2075372;28;20021;-72
2022/08/07 00:47:55;;;;;;;1.77;1.50;;;14.80;99.90;;;;;;2076902;28;20032;-72
2022/08/07 00:48:55;;;;;;;1.95;1.83;;;14.80;99.90;;;;;;2074369;28;20022;-72
2022/08/07 00:49:56;;;;;;;2.08;1.85;;;14.80;99.90;;;;;;2076001;28;20444;-72
2022/08/07 00:50:57;;;;;;;3.47;1.80;;;14.80;99.90;;;;;;2074950;28;20033;-72
2022/08/07 00:51:58;;;;;;;2.00;1.70;;;14.70;99.90;;;;;;2074152;28;20097;-72
2022/08/07 00:52:58;;;;;;;3.40;1.52;;;14.70;99.90;;;;;;2074211;28;20032;-72
2022/08/07 00:53:59;;;;;;;2.58;1.60;;;14.70;99.90;;;;;;2075193;28;20044;-72
2022/08/07 00:54:59;;;;;;;3.42;2.00;;;14.70;99.90;;;;;;2076720;28;20481;-72
2022/08/07 00:56:01;;;;;;;1.60;1.50;;;14.80;99.90;;;;;;2074792;28;20022;-72
2022/08/07 00:57:04;;;;;;;1.83;1.73;;;14.70;99.90;;;;;;2074584;28;20095;-72
2022/08/07 00:58:05;;;;;;;1.77;1.63;;;14.70;99.90;;;;;;2072675;28;20018;-72
2022/08/07 00:59:06;;;;;;;2.75;1.75;;;14.70;99.90;;;;;;2076054;28;20059;-72
2022/08/07 01:00:07;;;;;;;3.25;1.85;;;14.70;99.90;;;;;;2076842;28;20033;-72
2022/08/07 01:01:08;;;;;;;2.85;1.60;;;14.70;99.90;;;;;;2073923;28;20075;-72
2022/08/07 01:02:10;;;;;;;1.75;1.65;;;14.70;99.90;;;;;;2074170;28;20052;-72
2022/08/07 01:03:11;;;;;;;2.53;1.42;;;14.70;99.90;;;;;;2073177;28;20037;-72
2022/08/07 01:04:11;;;;;;;1.90;1.80;;;14.60;99.90;;;;;;2077664;28;20032;-72
2022/08/07 01:05:12;;;;;;;3.10;1.85;;;14.70;99.90;;;;;;2075631;28;20022;-72
2022/08/07 01:06:13;;;;;;;2.33;1.65;;;14.60;99.90;;;;;;2075448;28;20053;-72
2022/08/07 01:07:15;;;;;;;1.60;1.50;;;14.60;99.90;;;;;;2075561;28;20391;-72
2022/08/07 01:08:15;;;;;;;2.03;1.83;;;14.60;99.90;;;;;;2071814;28;20057;-72
2022/08/07 01:09:16;;;;;;;2.00;1.80;;;14.60;99.90;;;;;;2074758;28;20642;-72
2022/08/07 01:10:17;;;;;;;3.65;2.20;;;14.60;99.90;;;;;;2075046;28;20037;-72
2022/08/07 01:11:18;;;;;;;3.47;1.80;;;14.60;99.90;;;;;;2076500;28;20130;-72
2022/08/07 01:12:19;;;;;;;2.58;1.80;;;14.60;99.90;;;;;;2074775;28;20022;-72
2022/08/07 01:13:20;;;;;;;1.88;1.75;;;14.60;99.90;;;;;;2073680;28;20437;-72
2022/08/07 01:14:22;;;;;;;2.03;1.77;;;14.50;99.90;;;;;;2076292;28;20489;-72
2022/08/07 01:15:24;;;;;;;2.22;1.88;;;14.50;99.90;;;;;;2075704;28;20034;-72
2022/08/07 01:16:25;;;;;;;1.85;1.73;;;14.50;99.90;;;;;;2075111;28;20014;-72
2022/08/07 01:17:26;;;;;;;2.92;1.98;;;14.50;99.90;;;;;;2073883;28;20061;-72
2022/08/07 01:18:28;;;;;;;2.63;1.85;;;14.50;99.90;;;;;;2072440;28;20033;-72
2022/08/07 01:19:29;;;;;;;2.08;1.50;;;14.50;99.90;;;;;;2076043;28;20103;-72
2022/08/07 01:20:36;;;;;;;3.90;1.98;;;14.50;99.90;;;;;;2073104;28;20175;-72
2022/08/07 01:21:37;;;;;;;2.15;1.60;;;14.50;99.90;;;;;;2074695;28;20021;-72
2022/08/07 01:22:39;;;;;;;2.25;1.95;;;14.50;99.90;;;;;;2076929;28;20025;-72
2022/08/07 01:23:41;;;;;;;1.98;1.63;;;14.50;99.90;;;;;;2071251;28;20017;-72
2022/08/07 01:24:43;;;;;;;3.28;1.90;;;14.40;99.90;;;;;;2072675;28;20116;-72
2022/08/07 01:25:44;;;;;;;3.88;1.80;;;14.50;99.90;;;;;;2077095;28;20029;-72
2022/08/07 01:26:46;;;;;;;1.85;1.63;;;14.40;99.90;;;;;;2075038;28;20057;-72
2022/08/07 01:27:46;;;;;;;2.35;1.70;;;14.40;99.90;;;;;;2077184;28;20022;-72
2022/08/07 01:28:50;;;;;;;2.13;1.85;;;14.40;99.90;;;;;;2073312;28;20156;-72
2022/08/07 01:29:51;;;;;;;1.77;1.67;;;14.40;99.90;;;;;;2074243;28;20488;-72
2022/08/07 01:30:54;;;;;;;2.63;1.70;;;14.40;99.90;;;;;;2075407;28;20473;-72
2022/08/07 01:31:55;;;;;;;3.38;1.70;;;14.40;99.90;;;;;;2072781;28;20367;-72
2022/08/07 01:32:55;;;;;;;2.85;1.70;;;14.40;99.90;;;;;;2072783;28;20040;-73
2022/08/07 01:33:58;;;;;;;2.08;1.75;;;14.40;99.90;;;;;;2072178;28;20477;-72
2022/08/07 01:34:59;;;;;;;2.90;1.88;;;14.30;99.90;;;;;;2071350;28;20046;-72
2022/08/07 01:36:01;;;;;;;2.67;2.08;;;14.30;99.90;;;;;;2075540;28;20707;-72
2022/08/07 01:37:02;;;;;;;1.73;1.52;;;14.30;99.90;;;;;;2075705;28;20096;-72
2022/08/07 01:38:03;;;;;;;3.22;1.77;;;14.30;99.90;;;;;;2074282;28;20064;-72
2022/08/07 01:39:04;;;;;;;2.33;1.83;;;14.30;99.90;;;;;;2075630;28;20030;-72
2022/08/07 01:40:09;;;;;;;2.15;1.90;;;14.30;99.90;;;;;;2072898;28;20041;-72
2022/08/07 01:41:10;;;;;;;3.92;1.83;;;14.30;99.90;;;;;;2071578;28;20158;-72
2022/08/07 01:42:16;;;;;;;1.90;1.80;;;14.30;99.90;;;;;;2072509;28;20461;-72
2022/08/07 01:43:16;;;;;;;3.30;1.92;;;14.20;99.90;;;;;;2075389;28;20057;-72
2022/08/07 01:44:17;;;;;;;2.00;1.80;;;14.20;99.90;;;;;;2075189;28;20030;-72
2022/08/07 01:45:20;;;;;;;2.50;2.17;;;14.20;99.90;;;;;;2076519;28;20386;-72
2022/08/07 01:46:21;;;;;;;3.45;2.00;;;14.20;99.90;;;;;;2073769;28;20540;-72
2022/08/07 01:47:21;;;;;;;1.75;1.65;;;14.20;99.90;;;;;;2074897;28;20041;-72
2022/08/07 01:48:23;;;;;;;2.22;1.58;;;14.20;99.90;;;;;;2073671;28;20433;-72
2022/08/07 01:49:23;;;;;;;1.98;1.58;;;14.20;99.90;;;;;;2073084;28;20096;-72
2022/08/07 01:50:25;;;;;;;2.47;1.88;;;14.10;99.90;;;;;;2072678;28;20026;-72
2022/08/07 01:51:27;;;;;;;3.35;1.92;;;14.10;99.90;;;;;;2073630;28;20026;-72
2022/08/07 01:52:31;;;;;;;1.90;1.60;;;14.20;99.90;;;;;;2090576;28;20493;-72
2022/08/07 01:53:34;;;;;;;2.88;2.00;;;14.20;99.90;;;;;;2087880;28;20017;-72
2022/08/07 01:54:39;;;;;;;2.22;1.80;;;14.10;99.90;;;;;;2073308;28;20022;-72
2022/08/07 01:55:46;;;;;;;2.92;2.00;;;14.10;99.90;;;;;;2073679;28;20025;-72
2022/08/07 01:56:46;;;;;;;2.00;1.90;;;14.10;99.90;;;;;;2074001;28;20540;-72
2022/08/07 01:57:48;;;;;;;2.53;1.73;;;14.10;99.90;;;;;;2073526;28;20022;-72
2022/08/07 01:58:55;;;;;;;2.30;2.10;;;14.10;99.90;;;;;;2070710;28;20026;-72
2022/08/07 02:00:11;;;;;;;3.50;1.90;;;14.10;99.90;;;;;;2071757;28;20014;-72
2022/08/07 02:01:17;;;;;;;1.63;1.40;;;14.10;99.90;;;;;;2071975;28;20064;-72
2022/08/07 02:02:26;;;;;;;3.20;1.85;;;14.10;99.90;;;;;;2074734;28;20026;-72
2022/08/07 02:03:29;;;;;;;2.88;1.52;;;14.00;99.90;;;;;;2074413;28;20113;-72
2022/08/07 02:04:35;;;;;;;2.67;2.05;;;14.00;99.90;;;;;;2075118;28;20092;-72
2022/08/07 02:05:43;;;;;;;1.73;1.63;;;14.00;99.90;;;;;;2073986;28;20454;-72
2022/08/07 02:06:44;;;;;;;2.13;1.92;;;14.00;99.90;;;;;;2071627;28;20025;-72
2022/08/07 02:07:49;;;;;;;2.05;1.80;;;14.00;99.90;;;;;;2072800;28;20022;-72
2022/08/07 02:08:52;;;;;;;2.22;1.88;;;14.00;99.90;;;;;;2073861;28;20084;-72
2022/08/07 02:09:55;;;;;;;1.90;1.80;;;14.00;99.90;;;;;;2075272;28;20116;-72
2022/08/07 02:10:59;;;;;;;1.83;1.73;;;14.00;99.90;;;;;;2074125;28;20057;-72
2022/08/07 02:12:15;;;;;;;1.95;1.85;;;14.00;99.90;;;;;;2073249;28;20026;-72
2022/08/07 02:13:19;;;;;;;2.25;1.75;;;13.90;99.90;;;;;;2071794;28;20022;-72
2022/08/07 02:14:21;;;;;;;2.28;2.08;;;13.90;99.90;;;;;;2074063;28;20010;-72
2022/08/07 02:15:23;;;;;;;2.22;1.80;;;13.90;99.90;;;;;;2073473;28;20029;-72
2022/08/07 02:16:24;;;;;;;2.92;2.50;;;13.90;99.90;;;;;;2071882;28;20089;-72
2022/08/07 02:17:26;;;;;;;2.08;1.77;;;13.90;99.90;;;;;;2071415;28;20025;-72
2022/08/07 02:18:30;;;;;;;1.85;1.67;;;13.90;99.90;;;;;;2071805;28;20026;-72
2022/08/07 02:19:31;;;;;;;2.13;1.70;;;13.90;99.90;;;;;;2072114;28;20478;-72
2022/08/07 02:20:32;;;;;;;2.13;1.70;;;13.90;99.90;;;;;;2073525;28;20421;-72
2022/08/07 02:21:36;;;;;;;2.15;1.85;;;13.90;99.90;;;;;;2074329;28;20037;-73
2022/08/07 02:22:39;;;;;;;2.33;1.58;;;13.90;99.90;;;;;;2073688;28;20037;-72
2022/08/07 02:23:40;;;;;;;3.55;2.10;;;13.90;99.90;;;;;;2071333;28;20084;-72
2022/08/07 02:24:44;;;;;;;2.33;2.10;;;13.90;99.90;;;;;;2071904;28;20026;-72
2022/08/07 02:25:46;;;;;;;2.28;1.63;;;13.90;99.90;;;;;;2072710;28;20028;-72
2022/08/07 02:26:49;;;;;;;1.70;1.60;;;13.80;99.90;;;;;;2074326;28;20030;-72
2022/08/07 02:27:51;;;;;;;3.17;1.88;;;13.90;99.90;;;;;;2072388;28;20525;-72
2022/08/07 02:28:52;;;;;;;2.60;2.05;;;13.90;99.90;;;;;;2074733;28;20482;-72
2022/08/07 02:29:55;;;;;;;2.47;1.73;;;13.80;99.90;;;;;;2073436;28;20490;-72
2022/08/07 02:30:57;;;;;;;3.45;1.90;;;13.80;99.90;;;;;;2075473;28;20018;-72
2022/08/07 02:32:00;;;;;;;1.95;1.60;;;13.80;99.90;;;;;;2074001;28;20014;-72
2022/08/07 02:33:03;;;;;;;4.03;1.90;;;13.80;99.90;;;;;;2073823;28;20512;-72
2022/08/07 02:34:04;;;;;;;2.05;1.85;;;13.80;99.90;;;;;;2072378;28;20026;-72
2022/08/07 02:35:07;;;;;;;2.65;1.98;;;13.80;99.90;;;;;;2073883;28;20541;-72
2022/08/07 02:36:09;;;;;;;2.50;1.70;;;13.80;99.90;;;;;;2068787;28;20030;-72
2022/08/07 02:37:11;;;;;;;3.35;2.00;;;13.80;99.90;;;;;;2076760;28;20121;-72
2022/08/07 02:38:14;;;;;;;3.15;2.10;;;13.80;99.90;;;;;;2068501;28;20374;-72
2022/08/07 02:39:16;;;;;;;2.00;1.60;;;13.70;99.90;;;;;;2067782;28;20481;-72
2022/08/07 02:40:17;;;;;;;2.58;1.70;;;13.70;99.90;;;;;;2073670;28;20041;-72
2022/08/07 02:41:18;;;;;;;2.47;1.60;;;13.80;99.90;;;;;;2071832;28;20026;-72
2022/08/07 02:42:19;;;;;;;3.03;1.90;;;13.70;99.90;;;;;;2071234;28;20018;-72
2022/08/07 02:43:20;;;;;;;1.90;1.80;;;13.80;99.90;;;;;;2072964;28;20478;-72
2022/08/07 02:44:23;;;;;;;1.80;1.70;;;13.70;99.90;;;;;;2073252;28;20057;-72
2022/08/07 02:45:26;;;;;;;2.58;1.70;;;13.70;99.90;;;;;;2075701;28;20029;-72
2022/08/07 02:46:31;;;;;;;2.10;1.98;;;13.70;99.90;;;;;;2073906;28;20034;-72
2022/08/07 02:47:32;;;;;;;2.15;1.58;;;13.70;99.90;;;;;;2072954;28;20502;-72
2022/08/07 02:48:32;;;;;;;2.65;1.40;;;13.70;99.90;;;;;;2072996;28;20487;-72
2022/08/07 02:49:33;;;;;;;3.47;2.00;;;13.70;99.90;;;;;;2073054;28;20037;-72
2022/08/07 02:50:38;;;;;;;2.83;1.90;;;13.70;99.90;;;;;;2072890;28;20465;-72
2022/08/07 02:51:41;;;;;;;2.05;1.70;;;13.70;99.90;;;;;;2074040;28;20064;-72
2022/08/07 02:52:46;;;;;;;3.22;1.98;;;13.70;99.90;;;;;;2073835;28;20053;-72
2022/08/07 02:53:53;;;;;;;2.30;2.10;;;13.70;99.90;;;;;;2073096;28;20022;-72
2022/08/07 02:54:55;;;;;;;2.05;1.83;;;13.70;99.90;;;;;;2073908;28;20018;-72
2022/08/07 02:55:58;;;;;;;2.25;2.00;;;13.70;99.90;;;;;;2071190;28;20596;-72
2022/08/07 02:57:01;;;;;;;3.35;2.10;;;13.70;99.90;;;;;;2074140;28;20114;-72
2022/08/07 02:58:05;;;;;;;1.75;1.65;;;13.60;99.90;;;;;;2074378;28;20061;-72
2022/08/07 02:59:10;;;;;;;1.73;1.63;;;13.60;99.90;;;;;;2072477;28;20767;-72
2022/08/07 03:00:12;;;;;;;2.85;1.98;;;13.60;99.90;;;;;;2071490;28;20030;-72
2022/08/07 03:01:13;;;;;;;2.05;1.85;;;13.60;99.90;;;;;;2075784;28;20034;-72
2022/08/07 03:02:15;;;;;;;1.90;1.55;;;13.60;99.90;;;;;;2075573;28;20026;-72
2022/08/07 03:03:17;;;;;;;1.63;1.52;;;13.60;99.90;;;;;;2073445;28;20029;-72
2022/08/07 03:04:19;;;;;;;2.13;1.73;;;13.60;99.90;;;;;;2074387;28;20024;-72
2022/08/07 03:05:21;;;;;;;4.00;2.15;;;13.50;99.90;;;;;;2073059;28;20018;-72
2022/08/07 03:06:23;;;;;;;2.20;1.80;;;13.50;99.90;;;;;;2072921;28;20028;-72
2022/08/07 03:07:25;;;;;;;2.85;1.70;;;13.60;99.90;;;;;;2075068;28;20543;-72
2022/08/07 03:08:26;;;;;;;2.60;1.85;;;13.50;99.90;;;;;;2074894;28;20022;-72
2022/08/07 03:09:27;;;;;;;2.08;1.88;;;13.50;99.90;;;;;;2074813;28;20537;-72
2022/08/07 03:10:28;;;;;;;1.85;1.65;;;13.60;99.90;;;;;;2066298;28;20022;-72
2022/08/07 03:11:30;;;;;;;2.83;1.83;;;13.60;99.90;;;;;;2075286;28;20025;-72
2022/08/07 03:12:32;;;;;;;2.15;1.83;;;13.50;99.90;;;;;;2075207;28;20022;-72
2022/08/07 03:13:33;;;;;;;2.22;1.98;;;13.50;99.90;;;;;;2076297;28;20028;-72
2022/08/07 03:14:37;;;;;;;2.10;1.90;;;13.50;99.90;;;;;;2076337;28;20029;-72
2022/08/07 03:15:38;;;;;;;2.28;1.90;;;13.50;99.90;;;;;;2074079;28;20026;-72
2022/08/07 03:16:39;;;;;;;2.67;1.90;;;13.50;99.90;;;;;;2075474;28;20037;-72
2022/08/07 03:17:41;;;;;;;2.45;2.28;;;13.50;99.90;;;;;;2073295;28;20022;-72
2022/08/07 03:18:42;;;;;;;2.15;1.83;;;13.50;99.90;;;;;;2075292;28;20057;-72
2022/08/07 03:19:43;;;;;;;1.98;1.80;;;13.50;99.90;;;;;;2077049;28;20022;-73
2022/08/07 03:20:44;;;;;;;2.60;2.20;;;13.50;99.90;;;;;;2074535;28;20417;-72
2022/08/07 03:21:45;;;;;;;3.00;2.30;;;13.50;99.90;;;;;;2075627;28;20018;-72
2022/08/07 03:22:47;;;;;;;3.30;1.85;;;13.50;99.90;;;;;;2076731;28;20033;-72
2022/08/07 03:23:50;;;;;;;2.58;1.98;;;13.50;99.90;;;;;;2071700;28;20041;-72
2022/08/07 03:24:50;;;;;;;2.30;2.10;;;13.50;99.90;;;;;;2075371;28;20029;-72
2022/08/07 03:25:52;;;;;;;2.42;2.10;;;13.50;99.90;;;;;;2075169;28;20026;-72
2022/08/07 03:26:54;;;;;;;14.27;2.20;;;13.50;99.90;;;;;;2077554;28;20036;-72
2022/08/07 03:27:56;;;;;;;1.58;1.48;;;13.50;99.90;;;;;;2076513;28;20471;-72
2022/08/07 03:29:00;;;;;;;2.38;2.17;;;13.50;99.90;;;;;;2075499;28;20059;-72
2022/08/07 03:30:01;;;;;;;2.05;1.55;;;13.50;99.90;;;;;;2076073;28;20021;-72
2022/08/07 03:31:18;;;;;;;1.95;1.80;;;13.50;99.90;;;;;;2073478;28;20021;-72
2022/08/07 03:32:23;;;;;;;3.70;2.10;;;13.50;99.90;;;;;;2076306;28;20025;-72
2022/08/07 03:33:24;;;;;;;2.25;2.00;;;13.40;99.90;;;;;;2072507;28;20010;-72
2022/08/07 03:34:26;;;;;;;2.47;2.28;;;13.40;99.90;;;;;;2076626;28;20485;-72
2022/08/07 03:35:28;;;;;;;3.22;2.20;;;13.40;99.90;;;;;;2078112;28;20432;-72
2022/08/07 03:36:31;;;;;;;3.65;1.90;;;13.40;99.90;;;;;;2075248;28;20372;-72
2022/08/07 03:37:35;;;;;;;3.53;2.00;;;13.40;99.90;;;;;;2075788;28;20101;-72
2022/08/07 03:38:38;;;;;;;1.95;1.77;;;13.50;99.90;;;;;;2072586;28;20389;-72
2022/08/07 03:39:39;;;;;;;2.30;1.83;;;13.40;99.90;;;;;;2076170;28;20020;-72
2022/08/07 03:40:40;;;;;;;2.63;2.05;;;13.40;99.90;;;;;;2078171;28;20033;-72
2022/08/07 03:41:41;;;;;;;3.40;2.20;;;13.40;99.90;;;;;;2073650;28;20028;-72
2022/08/07 03:42:42;;;;;;;2.40;2.20;;;13.40;99.90;;;;;;2075557;28;20103;-72
2022/08/07 03:43:43;;;;;;;2.55;2.35;;;13.40;99.90;;;;;;2074899;28;20080;-72
2022/08/07 03:44:45;;;;;;;6.22;2.58;;;13.40;99.90;;;;;;2075658;28;20553;-72
2022/08/07 03:45:45;;;;;;;1.95;1.85;;;13.40;99.90;;;;;;2075345;28;20029;-72
2022/08/07 03:46:46;;;;;;;2.10;1.90;;;13.40;99.90;;;;;;2076579;28;20549;-72
2022/08/07 03:47:47;;;;;;;2.00;1.80;;;13.40;99.90;;;;;;2074582;28;20394;-72
2022/08/07 03:48:49;;;;;;;2.63;2.42;;;13.40;99.90;;;;;;2074624;28;20041;-72
2022/08/07 03:49:50;;;;;;;1.90;1.60;;;13.30;99.90;;;;;;2075623;28;20029;-72
2022/08/07 03:50:52;;;;;;;2.08;1.90;;;13.30;99.90;;;;;;2077279;28;20028;-72
2022/08/07 03:51:54;;;;;;;3.58;1.80;;;13.40;99.90;;;;;;2077523;28;20021;-72
2022/08/07 03:52:58;;;;;;;2.47;2.08;;;13.30;99.90;;;;;;2074314;28;20488;-72
2022/08/07 03:53:59;;;;;;;2.30;2.10;;;13.30;99.90;;;;;;2074846;28;20116;-72
2022/08/07 03:55:00;;;;;;;2.60;2.10;;;13.30;99.90;;;;;;2075320;28;20089;-72
2022/08/07 03:56:01;;;;;;;2.20;2.00;;;13.30;99.90;;;;;;2074109;28;20029;-72
2022/08/07 03:57:04;;;;;;;2.03;1.92;;;13.30;99.90;;;;;;2077609;28;20104;-72
2022/08/07 03:58:05;;;;;;;2.75;2.30;;;13.30;99.90;;;;;;2074677;28;20049;-72
2022/08/07 03:59:06;;;;;;;2.80;2.25;;;13.30;99.90;;;;;;2075116;28;20029;-72
2022/08/07 04:00:07;;;;;;;2.42;2.00;;;13.30;99.90;;;;;;2076482;28;20192;-72
2022/08/07 04:01:09;;;;;;;2.00;1.80;;;13.30;99.90;;;;;;2075398;28;20436;-72
2022/08/07 04:02:10;;;;;;;2.50;1.98;;;13.30;99.90;;;;;;2074693;28;20041;-72
2022/08/07 04:03:11;;;;;;;4.40;2.17;;;13.30;99.90;;;;;;2075308;28;20030;-72
2022/08/07 04:04:14;;;;;;;2.55;2.00;;;13.30;99.90;;;;;;2079073;28;20026;-72
2022/08/07 04:05:14;;;;;;;2.15;1.92;;;13.20;99.90;;;;;;2074603;28;20026;-72
2022/08/07 04:06:15;;;;;;;3.40;2.58;;;13.20;99.90;;;;;;2073615;28;20029;-72
2022/08/07 04:07:16;;;;;;;2.03;1.83;;;13.20;99.90;;;;;;2075934;28;20116;-72
2022/08/07 04:08:17;;;;;;;2.50;2.17;;;13.20;99.90;;;;;;2078628;28;20030;-72
2022/08/07 04:09:19;;;;;;;2.97;2.20;;;13.20;99.90;;;;;;2075284;28;20014;-72
2022/08/07 04:10:20;;;;;;;2.22;2.03;;;13.20;99.90;;;;;;2075668;28;20437;-72
2022/08/07 04:11:21;;;;;;;2.63;2.25;;;13.20;99.90;;;;;;2076019;28;20168;-72
2022/08/07 04:12:22;;;;;;;2.47;2.00;;;13.20;99.90;;;;;;2078532;28;20080;-72
2022/08/07 04:13:24;;;;;;;3.33;2.40;;;13.20;99.90;;;;;;2073464;28;20086;-72
2022/08/07 04:14:26;;;;;;;3.20;2.10;;;13.20;99.90;;;;;;2073476;28;20458;-72
2022/08/07 04:15:28;;;;;;;4.90;2.20;;;13.20;99.90;;;;;;2075995;28;20091;-72
2022/08/07 04:16:30;;;;;;;2.53;2.30;;;13.20;99.90;;;;;;2072501;28;20084;-72
2022/08/07 04:17:31;;;;;;;2.65;2.45;;;13.20;99.90;;;;;;2073791;28;20390;-72
2022/08/07 04:18:32;;;;;;;3.45;2.33;;;13.20;99.90;;;;;;2072329;28;20018;-72
2022/08/07 04:19:33;;;;;;;2.65;2.45;;;13.10;99.90;;;;;;2078964;28;20025;-72
2022/08/07 04:20:33;;;;;;;2.28;2.00;;;13.20;99.90;;;;;;2080413;28;20028;-72
2022/08/07 04:21:34;;;;;;;2.30;2.10;;;13.20;99.90;;;;;;2082347;28;20489;-72
2022/08/07 04:22:35;;;;;;;2.42;1.85;;;13.20;99.90;;;;;;2075291;28;20034;-72
2022/08/07 04:23:37;;;;;;;2.60;2.40;;;13.10;99.90;;;;;;2074704;28;20057;-72
2022/08/07 04:24:39;;;;;;;2.45;2.00;;;13.20;99.90;;;;;;2073825;28;20018;-72
2022/08/07 04:25:40;;;;;;;2.30;2.10;;;13.20;99.90;;;;;;2073789;28;20033;-72
2022/08/07 04:26:41;;;;;;;2.92;2.15;;;13.20;99.90;;;;;;2073348;28;20033;-72
2022/08/07 04:27:42;;;;;;;2.75;1.98;;;13.10;99.90;;;;;;2073136;28;20026;-72
2022/08/07 04:28:43;;;;;;;3.45;2.30;;;13.20;99.90;;;;;;2073173;28;20030;-72
2022/08/07 04:29:43;;;;;;;2.10;2.00;;;13.20;99.90;;;;;;2076015;28;20028;-72
2022/08/07 04:30:47;;;;;;;2.33;2.17;;;13.10;99.90;;;;;;2076528;28;20108;-72
2022/08/07 04:31:48;;;;;;;2.35;2.15;;;13.20;99.90;;;;;;2073939;28;20024;-72
2022/08/07 04:32:49;;;;;;;3.85;2.63;;;13.20;99.90;;;;;;2074974;28;20018;-72
2022/08/07 04:33:50;;;;;;;3.15;2.05;;;13.10;99.90;;;;;;2073961;28;20014;-72
2022/08/07 04:34:52;;;;;;;4.18;2.10;;;13.10;99.90;;;;;;2072958;28;20018;-72
2022/08/07 04:35:53;;;;;;;4.07;2.42;;;13.20;99.90;;;;;;2071929;28;20049;-72
2022/08/07 04:36:54;;;;;;;2.92;2.00;;;13.20;99.90;;;;;;2075746;28;20080;-72
2022/08/07 04:37:55;;;;;;;3.25;2.10;;;13.10;99.90;;;;;;2073587;28;20077;-72
2022/08/07 04:38:55;;;;;;;3.60;2.50;;;13.10;99.90;;;;;;2076783;28;20021;-72
2022/08/07 04:39:56;;;;;;;3.25;2.50;;;13.20;99.90;;;;;;2075837;28;20025;-72
2022/08/07 04:40:56;;;;;;;2.72;2.13;;;13.20;99.90;;;;;;2073884;28;20030;-72
2022/08/07 04:41:58;;;;;;;2.95;2.28;;;13.20;99.90;;;;;;2073899;28;20017;-72
2022/08/07 04:42:59;;;;;;;2.20;2.00;;;13.20;99.90;;;;;;2073160;28;20022;-72
2022/08/07 04:44:01;;;;;;;5.97;2.78;;;13.10;99.90;;;;;;2073715;28;20717;-72
2022/08/07 04:45:03;;;;;;;2.13;1.92;;;13.20;99.90;;;;;;2075454;28;20057;-72
2022/08/07 04:46:32;;;;;;;4.50;2.47;;;13.20;99.90;;;;;;2071879;28;20032;-72
2022/08/07 04:47:57;;;;;;;2.40;2.20;;;13.20;99.90;;;;;;2077116;28;20104;-72
2022/08/07 04:49:04;;;;;;;3.20;2.00;;;13.20;99.90;;;;;;2074524;28;20079;-72
2022/08/07 04:50:34;;;;;;;2.65;2.35;;;13.20;99.90;;;;;;2073254;28;20573;-72
2022/08/07 04:51:45;;;;;;;4.53;2.83;;;13.10;99.90;;;;;;2070230;28;20064;-72
2022/08/07 04:53:14;;;;;;;2.83;2.38;;;13.10;99.90;;;;;;2072604;28;20022;-72
2022/08/07 04:54:36;;;;;;;4.38;3.03;;;13.10;99.90;;;;;;2075442;28;20067;-72
2022/08/07 04:55:42;;;;;;;2.53;2.33;;;13.10;99.90;;;;;;2075138;28;20902;-72
2022/08/07 04:56:58;;;;;;;4.10;2.50;;;13.10;99.90;;;;;;2073139;28;20478;-72
2022/08/07 04:58:16;;;;;;;2.65;2.30;;;13.20;99.90;;;;;;2073598;28;20025;-72
2022/08/07 04:59:40;;;;;;;5.93;3.17;;;13.10;99.90;;;;;;2070480;28;20100;-72
2022/08/07 05:00:56;;;;;;;3.13;2.63;;;13.20;99.90;;;;;;2066166;28;20030;-72
2022/08/07 05:02:21;;;;;;;3.25;2.67;;;13.20;99.90;;;;;;2074270;28;20018;-72
2022/08/07 05:03:48;;;;;;;2.88;2.58;;;13.20;99.90;;;;;;2073521;28;20037;-72
2022/08/07 05:05:01;;;;;;;3.72;2.92;;;13.30;99.90;;;;;;2075226;28;20030;-72
2022/08/07 05:06:12;;;;;;;2.40;2.20;;;13.40;99.90;;;;;;2074616;28;20022;-72
2022/08/07 05:07:27;;;;;;;5.15;3.20;;;13.40;99.90;;;;;;2073642;28;20033;-72
2022/08/07 05:08:53;;;;;;;2.92;2.67;;;13.40;99.90;;;;;;2072946;28;20021;-72
2022/08/07 05:09:54;;;;;;;3.65;2.47;;;13.50;99.90;;;;;;2075331;28;20741;-72
2022/08/07 05:11:08;;;;;;;3.03;2.42;;;13.50;99.90;;;;;;2073514;28;20088;-72
2022/08/07 05:12:13;;;;;;;2.72;2.35;;;13.60;99.90;;;;;;2074600;28;20152;-72
2022/08/07 05:13:24;;;;;;;3.13;2.53;;;13.60;99.90;;;;;;2073631;28;20049;-72
2022/08/07 05:14:44;;;;;;;;;;;13.70;99.90;;;;;;2075911;28;20369;-72
2022/08/07 05:15:49;;;;;;;3.75;2.67;;;13.70;99.90;;;;;;2073343;28;19992;-72
2022/08/07 05:16:52;;;;;;;3.33;2.50;;;13.80;99.90;;;;;;2072775;28;20112;-72
2022/08/07 05:18:04;;;;;;;2.80;2.60;;;13.90;99.90;;;;;;2075189;28;20020;-72
2022/08/07 05:19:12;;;;;;;2.88;2.58;;;14.00;99.90;;;;;;2074510;28;20105;-72
2022/08/07 05:20:20;;;;;;;3.65;2.67;;;14.10;99.90;;;;;;2076093;28;20025;-72
2022/08/07 05:21:25;;;;;;;3.25;2.95;;;14.10;99.90;;;;;;2073811;28;20496;-72
2022/08/07 05:22:26;;;;;;;5.78;2.80;;;14.30;99.90;;;;;;2074168;28;20021;-72
2022/08/07 05:23:40;;;;;;;4.43;2.90;;;14.40;99.90;;;;;;2072392;28;20141;-72
2022/08/07 05:24:43;;;;;;;3.38;2.92;;;14.50;99.90;;;;;;2071238;28;20022;-72
2022/08/07 05:25:44;;;;;;;4.60;2.90;;;14.50;99.90;;;;;;2073768;28;20386;-72
2022/08/07 05:26:48;;;;;;;3.00;2.50;;;14.60;99.90;;;;;;2073891;28;20017;-72
2022/08/07 05:27:49;;;;;;;3.72;2.80;;;14.80;99.90;;;;;;2072400;28;20056;-72
2022/08/07 05:28:53;;;;;;;2.95;2.65;;;14.90;99.90;;;;;;2073618;28;20026;-72